sensor_id;sensor_type;location;lat;lon;timestamp;temperature;humidity
33594;DHT22;19920;52.242;20.940;2022-10-16T00:00:31;15.00;99.90
33594;DHT22;19920;52.242;20.940;2022-10-16T00:02:57;15.00;99.90
33594;DHT22;19920;52.242;20.940;2022-10-16T00:05:23;15.00;99.90
33594;DHT22;19920;52.242;20.940;2022-10-16T00:07:49;15.00;99.90
33594;DHT22;19920;52.242;20.940;2022-10-16T00:10:15;15.00;99.90
33594;DHT22;19920;52.242;20.940;2022-10-16T00:12:40;14.90;99.90
33594;DHT22;19920;52.242;20.940;2022-10-16T00:15:06;14.90;99.90
33594;DHT22;19920;52.242;20.940;2022-10-16T00:17:32;14.90;99.90
33594;DHT22;19920;52.242;20.940;2022-10-16T00:19:58;14.90;99.90
33594;DHT22;19920;52.242;20.940;2022-10-16T00:22:24;14.90;99.90
33594;DHT22;19920;52.242;20.940;2022-10-16T00:24:49;14.90;99.90
33594;DHT22;19920;52.242;20.940;2022-10-16T00:27:15;14.90;99.90
33594;DHT22;19920;52.242;20.940;2022-10-16T00:29:42;14.90;99.90
33594;DHT22;19920;52.242;20.940;2022-10-16T00:32:08;14.90;99.90
33594;DHT22;19920;52.242;20.940;2022-10-16T00:34:33;14.90;99.90
33594;DHT22;19920;52.242;20.940;2022-10-16T00:36:59;14.90;99.90
33594;DHT22;19920;52.242;20.940;2022-10-16T00:39:25;14.90;99.90
33594;DHT22;19920;52.242;20.940;2022-10-16T00:41:51;14.90;99.90
33594;DHT22;19920;52.242;20.940;2022-10-16T00:44:52;14.90;99.90
33594;DHT22;19920;52.242;20.940;2022-10-16T00:47:45;14.90;99.90
33594;DHT22;19920;52.242;20.940;2022-10-16T00:50:22;14.90;99.90
33594;DHT22;19920;52.242;20.940;2022-10-16T00:52:50;14.90;99.90
33594;DHT22;19920;52.242;20.940;2022-10-16T00:55:17;14.90;99.90
33594;DHT22;19920;52.242;20.940;2022-10-16T00:57:44;14.90;99.90
33594;DHT22;19920;52.242;20.940;2022-10-16T01:00:13;14.80;99.90
33594;DHT22;19920;52.242;20.940;2022-10-16T01:02:40;14.80;99.90
33594;DHT22;19920;52.242;20.940;2022-10-16T01:05:05;14.80;99.90
33594;DHT22;19920;52.242;20.940;2022-10-16T01:15:55;14.70;99.90
33594;DHT22;19920;52.242;20.940;2022-10-16T01:18:46;14.70;99.90
33594;DHT22;19920;52.242;20.940;2022-10-16T01:21:28;14.70;99.90
33594;DHT22;19920;52.242;20.940;2022-10-16T01:24:19;14.70;99.90
33594;DHT22;19920;52.242;20.940;2022-10-16T01:29:32;14.70;99.90
33594;DHT22;19920;52.242;20.940;2022-10-16T01:32:05;14.60;99.90
33594;DHT22;19920;52.242;20.940;2022-10-16T01:34:37;14.70;99.90
33594;DHT22;19920;52.242;20.940;2022-10-16T01:37:11;14.70;99.90
33594;DHT22;19920;52.242;20.940;2022-10-16T01:39:40;14.60;99.90
33594;DHT22;19920;52.242;20.940;2022-10-16T01:42:23;14.60;99.90
33594;DHT22;19920;52.242;20.940;2022-10-16T01:44:51;14.60;99.90
33594;DHT22;19920;52.242;20.940;2022-10-16T01:47:20;14.60;99.90
33594;DHT22;19920;52.242;20.940;2022-10-16T01:49:48;14.60;99.90
33594;DHT22;19920;52.242;20.940;2022-10-16T01:52:17;14.50;99.90
33594;DHT22;19920;52.242;20.940;2022-10-16T01:54:45;14.40;99.90
33594;DHT22;19920;52.242;20.940;2022-10-16T01:57:13;14.40;99.90
33594;DHT22;19920;52.242;20.940;2022-10-16T01:59:45;14.40;99.90
33594;DHT22;19920;52.242;20.940;2022-10-16T02:02:12;14.40;99.90
33594;DHT22;19920;52.242;20.940;2022-10-16T02:04:46;14.40;99.90
33594;DHT22;19920;52.242;20.940;2022-10-16T02:07:13;14.40;99.90
33594;DHT22;19920;52.242;20.940;2022-10-16T02:09:39;14.40;99.90
33594;DHT22;19920;52.242;20.940;2022-10-16T02:12:29;14.30;99.90
33594;DHT22;19920;52.242;20.940;2022-10-16T02:14:56;14.20;99.90
33594;DHT22;19920;52.242;20.940;2022-10-16T02:17:24;14.20;99.90
33594;DHT22;19920;52.242;20.940;2022-10-16T02:19:51;14.20;99.90
33594;DHT22;19920;52.242;20.940;2022-10-16T02:22:42;14.20;99.90
33594;DHT22;19920;52.242;20.940;2022-10-16T02:25:24;14.30;99.90
33594;DHT22;19920;52.242;20.940;2022-10-16T02:28:00;14.30;99.90
33594;DHT22;19920;52.242;20.940;2022-10-16T02:30:46;14.30;99.90
33594;DHT22;19920;52.242;20.940;2022-10-16T02:33:15;14.30;99.90
33594;DHT22;19920;52.242;20.940;2022-10-16T02:35:42;14.40;99.90
33594;DHT22;19920;52.242;20.940;2022-10-16T02:38:09;14.40;99.90
33594;DHT22;19920;52.242;20.940;2022-10-16T02:40:36;14.30;99.90
33594;DHT22;19920;52.242;20.940;2022-10-16T02:43:03;14.30;99.90
33594;DHT22;19920;52.242;20.940;2022-10-16T02:45:29;14.30;99.90
33594;DHT22;19920;52.242;20.940;2022-10-16T02:47:55;14.30;99.90
33594;DHT22;19920;52.242;20.940;2022-10-16T02:50:21;14.20;99.90
33594;DHT22;19920;52.242;20.940;2022-10-16T02:52:47;14.30;99.90
33594;DHT22;19920;52.242;20.940;2022-10-16T02:55:13;14.30;99.90
33594;DHT22;19920;52.242;20.940;2022-10-16T02:57:39;14.30;99.90
33594;DHT22;19920;52.242;20.940;2022-10-16T03:00:07;14.30;99.90
33594;DHT22;19920;52.242;20.940;2022-10-16T03:02:33;14.40;99.90
33594;DHT22;19920;52.242;20.940;2022-10-16T03:04:59;14.40;99.90
33594;DHT22;19920;52.242;20.940;2022-10-16T03:07:24;14.40;99.90
33594;DHT22;19920;52.242;20.940;2022-10-16T03:09:50;14.40;99.90
33594;DHT22;19920;52.242;20.940;2022-10-16T03:12:15;14.40;99.90
33594;DHT22;19920;52.242;20.940;2022-10-16T03:14:41;14.50;99.90
33594;DHT22;19920;52.242;20.940;2022-10-16T03:17:07;14.50;99.90
33594;DHT22;19920;52.242;20.940;2022-10-16T03:19:32;14.50;99.90
33594;DHT22;19920;52.242;20.940;2022-10-16T03:21:58;14.50;99.90
33594;DHT22;19920;52.242;20.940;2022-10-16T03:24:24;14.50;99.90
33594;DHT22;19920;52.242;20.940;2022-10-16T03:26:49;14.50;99.90
33594;DHT22;19920;52.242;20.940;2022-10-16T03:29:15;14.40;99.90
33594;DHT22;19920;52.242;20.940;2022-10-16T03:31:40;14.40;99.90
33594;DHT22;19920;52.242;20.940;2022-10-16T03:34:06;14.40;99.90
33594;DHT22;19920;52.242;20.940;2022-10-16T03:36:32;14.40;99.90
33594;DHT22;19920;52.242;20.940;2022-10-16T03:38:58;14.40;99.90
33594;DHT22;19920;52.242;20.940;2022-10-16T03:41:23;14.40;99.90
33594;DHT22;19920;52.242;20.940;2022-10-16T03:43:49;14.40;99.90
33594;DHT22;19920;52.242;20.940;2022-10-16T03:46:15;14.40;99.90
33594;DHT22;19920;52.242;20.940;2022-10-16T03:48:41;14.30;99.90
33594;DHT22;19920;52.242;20.940;2022-10-16T03:51:06;14.30;99.90
33594;DHT22;19920;52.242;20.940;2022-10-16T03:53:32;14.30;99.90
33594;DHT22;19920;52.242;20.940;2022-10-16T03:55:57;14.20;99.90
33594;DHT22;19920;52.242;20.940;2022-10-16T03:58:23;14.20;99.90
33594;DHT22;19920;52.242;20.940;2022-10-16T04:00:49;14.20;99.90
33594;DHT22;19920;52.242;20.940;2022-10-16T04:03:15;14.10;99.90
33594;DHT22;19920;52.242;20.940;2022-10-16T04:05:41;14.00;99.90
33594;DHT22;19920;52.242;20.940;2022-10-16T04:08:06;14.00;99.90
33594;DHT22;19920;52.242;20.940;2022-10-16T04:10:32;13.90;99.90
33594;DHT22;19920;52.242;20.940;2022-10-16T04:12:58;13.90;99.90
33594;DHT22;19920;52.242;20.940;2022-10-16T04:15:24;13.90;99.90
33594;DHT22;19920;52.242;20.940;2022-10-16T04:17:50;13.90;99.90
33594;DHT22;19920;52.242;20.940;2022-10-16T04:20:16;13.80;99.90
33594;DHT22;19920;52.242;20.940;2022-10-16T04:22:41;13.90;99.90
33594;DHT22;19920;52.242;20.940;2022-10-16T04:25:07;13.90;99.90
33594;DHT22;19920;52.242;20.940;2022-10-16T04:27:33;13.90;99.90
33594;DHT22;19920;52.242;20.940;2022-10-16T04:29:59;13.90;99.90
33594;DHT22;19920;52.242;20.940;2022-10-16T04:32:25;13.90;99.90
33594;DHT22;19920;52.242;20.940;2022-10-16T04:34:51;13.90;99.90
33594;DHT22;19920;52.242;20.940;2022-10-16T04:37:17;13.90;99.90
33594;DHT22;19920;52.242;20.940;2022-10-16T04:39:42;13.80;99.90
33594;DHT22;19920;52.242;20.940;2022-10-16T04:42:09;13.80;99.90
33594;DHT22;19920;52.242;20.940;2022-10-16T04:44:34;13.80;99.90
33594;DHT22;19920;52.242;20.940;2022-10-16T04:47:00;13.70;99.90
33594;DHT22;19920;52.242;20.940;2022-10-16T04:49:26;13.70;99.90
33594;DHT22;19920;52.242;20.940;2022-10-16T04:51:51;13.60;99.90
33594;DHT22;19920;52.242;20.940;2022-10-16T04:54:17;13.50;99.90
33594;DHT22;19920;52.242;20.940;2022-10-16T04:56:43;13.50;99.90
33594;DHT22;19920;52.242;20.940;2022-10-16T04:59:13;13.50;99.90
33594;DHT22;19920;52.242;20.940;2022-10-16T05:01:39;13.50;99.90
33594;DHT22;19920;52.242;20.940;2022-10-16T05:04:05;13.40;99.90
33594;DHT22;19920;52.242;20.940;2022-10-16T05:06:31;13.40;99.90
33594;DHT22;19920;52.242;20.940;2022-10-16T05:08:57;13.30;99.90
33594;DHT22;19920;52.242;20.940;2022-10-16T05:11:22;13.20;99.90
33594;DHT22;19920;52.242;20.940;2022-10-16T05:13:48;13.30;99.90
33594;DHT22;19920;52.242;20.940;2022-10-16T05:16:14;13.20;99.90
33594;DHT22;19920;52.242;20.940;2022-10-16T05:18:40;13.20;99.90
33594;DHT22;19920;52.242;20.940;2022-10-16T05:21:06;13.20;99.90
33594;DHT22;19920;52.242;20.940;2022-10-16T05:23:31;13.20;99.90
33594;DHT22;19920;52.242;20.940;2022-10-16T05:25:58;13.10;99.90
33594;DHT22;19920;52.242;20.940;2022-10-16T05:28:28;13.10;99.90
33594;DHT22;19920;52.242;20.940;2022-10-16T05:30:54;13.10;99.90
33594;DHT22;19920;52.242;20.940;2022-10-16T05:33:21;13.10;99.90
33594;DHT22;19920;52.242;20.940;2022-10-16T05:35:47;13.10;99.90
33594;DHT22;19920;52.242;20.940;2022-10-16T05:38:13;13.10;99.90
33594;DHT22;19920;52.242;20.940;2022-10-16T05:40:39;13.10;99.90
33594;DHT22;19920;52.242;20.940;2022-10-16T05:43:04;13.10;99.90
33594;DHT22;19920;52.242;20.940;2022-10-16T05:45:30;13.00;99.90
33594;DHT22;19920;52.242;20.940;2022-10-16T05:47:56;13.00;99.90
33594;DHT22;19920;52.242;20.940;2022-10-16T05:50:21;13.00;99.90
33594;DHT22;19920;52.242;20.940;2022-10-16T05:52:47;13.00;99.90
33594;DHT22;19920;52.242;20.940;2022-10-16T05:55:13;13.00;99.90
33594;DHT22;19920;52.242;20.940;2022-10-16T05:57:38;13.00;99.90
33594;DHT22;19920;52.242;20.940;2022-10-16T06:00:04;13.00;99.90
33594;DHT22;19920;52.242;20.940;2022-10-16T06:02:30;13.00;99.90
33594;DHT22;19920;52.242;20.940;2022-10-16T06:04:56;13.00;99.90
33594;DHT22;19920;52.242;20.940;2022-10-16T06:07:22;13.00;99.90
33594;DHT22;19920;52.242;20.940;2022-10-16T06:09:52;13.00;99.90
33594;DHT22;19920;52.242;20.940;2022-10-16T06:12:18;13.00;99.90
33594;DHT22;19920;52.242;20.940;2022-10-16T06:14:45;13.00;99.90
33594;DHT22;19920;52.242;20.940;2022-10-16T06:17:13;13.10;99.90
33594;DHT22;19920;52.242;20.940;2022-10-16T06:19:39;13.30;99.90
33594;DHT22;19920;52.242;20.940;2022-10-16T06:22:05;13.40;99.90
33594;DHT22;19920;52.242;20.940;2022-10-16T06:24:30;13.40;99.90
33594;DHT22;19920;52.242;20.940;2022-10-16T06:26:56;13.50;99.90
33594;DHT22;19920;52.242;20.940;2022-10-16T06:29:22;13.50;99.90
33594;DHT22;19920;52.242;20.940;2022-10-16T06:31:47;13.60;99.90
33594;DHT22;19920;52.242;20.940;2022-10-16T06:34:13;13.70;99.90
33594;DHT22;19920;52.242;20.940;2022-10-16T06:36:39;13.80;99.90
33594;DHT22;19920;52.242;20.940;2022-10-16T06:39:05;13.80;99.90
33594;DHT22;19920;52.242;20.940;2022-10-16T06:41:33;14.00;99.90
33594;DHT22;19920;52.242;20.940;2022-10-16T06:43:59;14.10;99.90
33594;DHT22;19920;52.242;20.940;2022-10-16T06:46:26;14.00;99.90
33594;DHT22;19920;52.242;20.940;2022-10-16T06:48:53;14.10;99.90
33594;DHT22;19920;52.242;20.940;2022-10-16T06:51:23;14.20;99.90
33594;DHT22;19920;52.242;20.940;2022-10-16T06:53:51;14.30;99.90
33594;DHT22;19920;52.242;20.940;2022-10-16T06:58:45;14.70;99.90
33594;DHT22;19920;52.242;20.940;2022-10-16T07:01:12;14.90;99.90
33594;DHT22;19920;52.242;20.940;2022-10-16T07:03:42;15.00;99.90
33594;DHT22;19920;52.242;20.940;2022-10-16T07:06:10;15.10;99.90
33594;DHT22;19920;52.242;20.940;2022-10-16T07:08:37;15.20;99.90
33594;DHT22;19920;52.242;20.940;2022-10-16T07:11:12;15.30;99.90
33594;DHT22;19920;52.242;20.940;2022-10-16T07:13:39;15.30;99.90
33594;DHT22;19920;52.242;20.940;2022-10-16T07:16:10;15.30;99.90
33594;DHT22;19920;52.242;20.940;2022-10-16T07:18:36;15.30;99.90
33594;DHT22;19920;52.242;20.940;2022-10-16T07:21:10;15.30;99.90
33594;DHT22;19920;52.242;20.940;2022-10-16T07:23:37;15.30;99.90
33594;DHT22;19920;52.242;20.940;2022-10-16T07:26:03;15.30;99.90
33594;DHT22;19920;52.242;20.940;2022-10-16T07:28:30;15.30;99.90
33594;DHT22;19920;52.242;20.940;2022-10-16T07:31:03;15.50;99.90
33594;DHT22;19920;52.242;20.940;2022-10-16T07:33:29;15.50;99.90
33594;DHT22;19920;52.242;20.940;2022-10-16T07:35:55;15.60;99.90
33594;DHT22;19920;52.242;20.940;2022-10-16T07:38:22;15.70;99.90
33594;DHT22;19920;52.242;20.940;2022-10-16T07:40:48;15.70;99.90
33594;DHT22;19920;52.242;20.940;2022-10-16T07:43:14;15.70;99.90
33594;DHT22;19920;52.242;20.940;2022-10-16T07:45:49;15.80;99.90
33594;DHT22;19920;52.242;20.940;2022-10-16T07:48:16;15.90;99.90
33594;DHT22;19920;52.242;20.940;2022-10-16T07:50:43;16.10;99.90
33594;DHT22;19920;52.242;20.940;2022-10-16T07:53:09;16.30;99.90
33594;DHT22;19920;52.242;20.940;2022-10-16T07:55:35;16.40;99.90
33594;DHT22;19920;52.242;20.940;2022-10-16T07:58:01;16.40;99.90
33594;DHT22;19920;52.242;20.940;2022-10-16T08:00:26;16.50;99.90
33594;DHT22;19920;52.242;20.940;2022-10-16T08:02:52;16.80;99.90
33594;DHT22;19920;52.242;20.940;2022-10-16T08:05:18;17.00;99.90
33594;DHT22;19920;52.242;20.940;2022-10-16T08:07:48;17.00;99.90
33594;DHT22;19920;52.242;20.940;2022-10-16T08:10:19;17.20;99.90
33594;DHT22;19920;52.242;20.940;2022-10-16T08:12:44;17.20;99.90
33594;DHT22;19920;52.242;20.940;2022-10-16T08:15:10;17.30;99.90
33594;DHT22;19920;52.242;20.940;2022-10-16T08:17:36;17.30;99.90
33594;DHT22;19920;52.242;20.940;2022-10-16T08:20:02;17.40;99.90
33594;DHT22;19920;52.242;20.940;2022-10-16T08:22:28;17.40;99.90
33594;DHT22;19920;52.242;20.940;2022-10-16T08:24:53;17.40;99.90
33594;DHT22;19920;52.242;20.940;2022-10-16T08:27:19;17.50;99.90
33594;DHT22;19920;52.242;20.940;2022-10-16T08:29:45;17.50;99.90
33594;DHT22;19920;52.242;20.940;2022-10-16T08:32:10;17.70;99.90
33594;DHT22;19920;52.242;20.940;2022-10-16T08:34:36;17.70;99.90
33594;DHT22;19920;52.242;20.940;2022-10-16T08:37:02;17.80;99.90
33594;DHT22;19920;52.242;20.940;2022-10-16T08:39:28;17.90;99.90
33594;DHT22;19920;52.242;20.940;2022-10-16T08:42:23;17.90;99.90
33594;DHT22;19920;52.242;20.940;2022-10-16T08:47:38;18.30;99.90
33594;DHT22;19920;52.242;20.940;2022-10-16T08:50:13;18.30;99.90
33594;DHT22;19920;52.242;20.940;2022-10-16T08:52:42;18.30;99.90
33594;DHT22;19920;52.242;20.940;2022-10-16T08:57:45;18.70;99.90
33594;DHT22;19920;52.242;20.940;2022-10-16T09:00:14;18.60;99.90
33594;DHT22;19920;52.242;20.940;2022-10-16T09:13:28;18.80;99.90
33594;DHT22;19920;52.242;20.940;2022-10-16T09:18:48;18.90;99.90
33594;DHT22;19920;52.242;20.940;2022-10-16T09:21:29;18.90;99.90
33594;DHT22;19920;52.242;20.940;2022-10-16T09:24:04;19.00;99.90
33594;DHT22;19920;52.242;20.940;2022-10-16T09:26:33;19.20;99.90
33594;DHT22;19920;52.242;20.940;2022-10-16T09:28:59;19.10;99.90
33594;DHT22;19920;52.242;20.940;2022-10-16T09:31:25;19.10;99.90
33594;DHT22;19920;52.242;20.940;2022-10-16T09:33:55;19.20;99.90
33594;DHT22;19920;52.242;20.940;2022-10-16T09:36:22;19.30;99.90
33594;DHT22;19920;52.242;20.940;2022-10-16T09:38:48;19.40;99.90
33594;DHT22;19920;52.242;20.940;2022-10-16T09:41:21;19.40;99.90
33594;DHT22;19920;52.242;20.940;2022-10-16T09:44:01;19.50;99.90
33594;DHT22;19920;52.242;20.940;2022-10-16T09:46:31;19.60;99.90
33594;DHT22;19920;52.242;20.940;2022-10-16T09:49:00;19.70;99.90
33594;DHT22;19920;52.242;20.940;2022-10-16T09:51:34;19.70;99.90
33594;DHT22;19920;52.242;20.940;2022-10-16T09:56:30;19.80;99.90
33594;DHT22;19920;52.242;20.940;2022-10-16T09:59:03;19.90;99.90
33594;DHT22;19920;52.242;20.940;2022-10-16T10:01:53;19.90;99.90
33594;DHT22;19920;52.242;20.940;2022-10-16T10:04:24;19.80;99.90
33594;DHT22;19920;52.242;20.940;2022-10-16T10:06:57;19.90;99.90
33594;DHT22;19920;52.242;20.940;2022-10-16T10:09:28;19.90;99.90
33594;DHT22;19920;52.242;20.940;2022-10-16T10:11:58;20.00;99.90
33594;DHT22;19920;52.242;20.940;2022-10-16T10:14:35;20.20;99.90
33594;DHT22;19920;52.242;20.940;2022-10-16T10:19:51;20.30;99.90
33594;DHT22;19920;52.242;20.940;2022-10-16T10:22:29;20.40;99.90
33594;DHT22;19920;52.242;20.940;2022-10-16T10:39:00;20.60;99.90
33594;DHT22;19920;52.242;20.940;2022-10-16T10:47:40;20.80;99.90
33594;DHT22;19920;52.242;20.940;2022-10-16T10:55:52;20.70;99.90
33594;DHT22;19920;52.242;20.940;2022-10-16T11:01:39;20.60;99.90
33594;DHT22;19920;52.242;20.940;2022-10-16T11:06:57;20.90;99.90
33594;DHT22;19920;52.242;20.940;2022-10-16T11:09:28;20.70;99.90
33594;DHT22;19920;52.242;20.940;2022-10-16T11:15:13;20.70;99.90
33594;DHT22;19920;52.242;20.940;2022-10-16T11:17:47;20.80;99.90
33594;DHT22;19920;52.242;20.940;2022-10-16T11:20:54;20.60;99.90
33594;DHT22;19920;52.242;20.940;2022-10-16T11:23:29;20.60;99.90
33594;DHT22;19920;52.242;20.940;2022-10-16T11:26:02;20.50;99.90
33594;DHT22;19920;52.242;20.940;2022-10-16T11:28:49;20.60;99.90
33594;DHT22;19920;52.242;20.940;2022-10-16T11:31:24;20.60;99.90
33594;DHT22;19920;52.242;20.940;2022-10-16T11:34:04;20.80;99.90
33594;DHT22;19920;52.242;20.940;2022-10-16T11:36:41;20.80;99.90
33594;DHT22;19920;52.242;20.940;2022-10-16T11:39:29;20.80;99.90
33594;DHT22;19920;52.242;20.940;2022-10-16T11:50:22;20.80;99.90
33594;DHT22;19920;52.242;20.940;2022-10-16T11:53:42;20.90;99.90
33594;DHT22;19920;52.242;20.940;2022-10-16T11:55:41;21.10;99.90
33594;DHT22;19920;52.242;20.940;2022-10-16T11:58:20;21.10;99.90
33594;DHT22;19920;52.242;20.940;2022-10-16T12:03:55;21.10;99.90
33594;DHT22;19920;52.242;20.940;2022-10-16T12:08:59;21.30;99.90
33594;DHT22;19920;52.242;20.940;2022-10-16T12:20:00;21.40;99.90
33594;DHT22;19920;52.242;20.940;2022-10-16T12:22:28;21.40;99.90
33594;DHT22;19920;52.242;20.940;2022-10-16T12:24:55;21.40;99.90
33594;DHT22;19920;52.242;20.940;2022-10-16T12:27:30;21.20;99.90
33594;DHT22;19920;52.242;20.940;2022-10-16T12:30:00;21.30;99.90
33594;DHT22;19920;52.242;20.940;2022-10-16T12:32:35;21.20;99.90
33594;DHT22;19920;52.242;20.940;2022-10-16T12:35:02;21.20;99.90
33594;DHT22;19920;52.242;20.940;2022-10-16T12:37:34;21.20;99.90
33594;DHT22;19920;52.242;20.940;2022-10-16T12:40:34;21.20;99.90
33594;DHT22;19920;52.242;20.940;2022-10-16T12:42:58;21.20;99.90
33594;DHT22;19920;52.242;20.940;2022-10-16T12:45:33;21.10;99.90
33594;DHT22;19920;52.242;20.940;2022-10-16T12:48:17;21.10;99.90
33594;DHT22;19920;52.242;20.940;2022-10-16T12:50:43;21.00;99.90
33594;DHT22;19920;52.242;20.940;2022-10-16T12:53:21;21.00;99.90
33594;DHT22;19920;52.242;20.940;2022-10-16T13:10:05;20.30;99.90
33594;DHT22;19920;52.242;20.940;2022-10-16T13:23:39;20.10;99.90
33594;DHT22;19920;52.242;20.940;2022-10-16T13:29:04;20.00;99.90
33594;DHT22;19920;52.242;20.940;2022-10-16T13:31:31;19.80;99.90
33594;DHT22;19920;52.242;20.940;2022-10-16T13:33:58;19.80;99.90
33594;DHT22;19920;52.242;20.940;2022-10-16T13:36:42;19.80;99.90
33594;DHT22;19920;52.242;20.940;2022-10-16T13:39:14;19.80;99.90
33594;DHT22;19920;52.242;20.940;2022-10-16T13:41:40;19.70;99.90
33594;DHT22;19920;52.242;20.940;2022-10-16T13:44:14;19.70;99.90
33594;DHT22;19920;52.242;20.940;2022-10-16T13:46:41;19.70;99.90
33594;DHT22;19920;52.242;20.940;2022-10-16T13:49:17;19.70;99.90
33594;DHT22;19920;52.242;20.940;2022-10-16T13:51:57;19.70;99.90
33594;DHT22;19920;52.242;20.940;2022-10-16T13:54:25;19.70;99.90
33594;DHT22;19920;52.242;20.940;2022-10-16T13:56:51;19.70;99.90
33594;DHT22;19920;52.242;20.940;2022-10-16T13:59:33;19.70;99.90
33594;DHT22;19920;52.242;20.940;2022-10-16T14:01:59;19.70;99.90
33594;DHT22;19920;52.242;20.940;2022-10-16T14:04:32;19.70;99.90
33594;DHT22;19920;52.242;20.940;2022-10-16T14:06:58;19.80;99.90
33594;DHT22;19920;52.242;20.940;2022-10-16T14:09:25;19.80;99.90
33594;DHT22;19920;52.242;20.940;2022-10-16T14:11:58;19.80;99.90
33594;DHT22;19920;52.242;20.940;2022-10-16T14:14:29;19.80;99.90
33594;DHT22;19920;52.242;20.940;2022-10-16T14:16:57;19.80;99.90
33594;DHT22;19920;52.242;20.940;2022-10-16T14:19:28;19.80;99.90
33594;DHT22;19920;52.242;20.940;2022-10-16T14:21:55;19.90;99.90
33594;DHT22;19920;52.242;20.940;2022-10-16T14:24:26;19.90;99.90
33594;DHT22;19920;52.242;20.940;2022-10-16T14:26:53;19.90;99.90
33594;DHT22;19920;52.242;20.940;2022-10-16T14:29:22;19.90;99.90
33594;DHT22;19920;52.242;20.940;2022-10-16T14:32:22;19.90;99.90
33594;DHT22;19920;52.242;20.940;2022-10-16T14:34:53;19.90;99.90
33594;DHT22;19920;52.242;20.940;2022-10-16T14:37:29;19.90;99.90
33594;DHT22;19920;52.242;20.940;2022-10-16T14:39:55;19.80;99.90
33594;DHT22;19920;52.242;20.940;2022-10-16T14:42:24;19.80;99.90
33594;DHT22;19920;52.242;20.940;2022-10-16T14:44:53;19.80;99.90
33594;DHT22;19920;52.242;20.940;2022-10-16T14:47:22;19.70;99.90
33594;DHT22;19920;52.242;20.940;2022-10-16T14:49:54;19.70;99.90
33594;DHT22;19920;52.242;20.940;2022-10-16T14:52:21;19.70;99.90
33594;DHT22;19920;52.242;20.940;2022-10-16T14:54:50;19.70;99.90
33594;DHT22;19920;52.242;20.940;2022-10-16T14:57:22;19.70;99.90
33594;DHT22;19920;52.242;20.940;2022-10-16T14:59:48;19.70;99.90
33594;DHT22;19920;52.242;20.940;2022-10-16T15:02:31;19.60;99.90
33594;DHT22;19920;52.242;20.940;2022-10-16T15:04:57;19.50;99.90
33594;DHT22;19920;52.242;20.940;2022-10-16T15:07:24;19.50;99.90
33594;DHT22;19920;52.242;20.940;2022-10-16T15:09:50;19.50;99.90
33594;DHT22;19920;52.242;20.940;2022-10-16T15:12:17;19.50;99.90
33594;DHT22;19920;52.242;20.940;2022-10-16T15:14:43;19.40;99.90
33594;DHT22;19920;52.242;20.940;2022-10-16T15:17:10;19.40;99.90
33594;DHT22;19920;52.242;20.940;2022-10-16T15:19:36;19.40;99.90
33594;DHT22;19920;52.242;20.940;2022-10-16T15:22:02;19.40;99.90
33594;DHT22;19920;52.242;20.940;2022-10-16T15:24:27;19.40;99.90
33594;DHT22;19920;52.242;20.940;2022-10-16T15:26:53;19.30;99.90
33594;DHT22;19920;52.242;20.940;2022-10-16T15:29:18;19.20;99.90
33594;DHT22;19920;52.242;20.940;2022-10-16T15:31:45;19.20;99.90
33594;DHT22;19920;52.242;20.940;2022-10-16T15:34:13;19.10;99.90
33594;DHT22;19920;52.242;20.940;2022-10-16T15:36:39;19.10;99.90
33594;DHT22;19920;52.242;20.940;2022-10-16T15:39:15;19.00;99.90
33594;DHT22;19920;52.242;20.940;2022-10-16T15:41:42;19.00;99.90
33594;DHT22;19920;52.242;20.940;2022-10-16T15:44:08;19.10;99.90
33594;DHT22;19920;52.242;20.940;2022-10-16T15:46:33;19.10;99.90
33594;DHT22;19920;52.242;20.940;2022-10-16T15:49:00;19.10;99.90
33594;DHT22;19920;52.242;20.940;2022-10-16T15:51:26;19.00;99.90
33594;DHT22;19920;52.242;20.940;2022-10-16T15:53:59;19.00;99.90
33594;DHT22;19920;52.242;20.940;2022-10-16T15:56:27;18.90;99.90
33594;DHT22;19920;52.242;20.940;2022-10-16T15:58:54;18.90;99.90
33594;DHT22;19920;52.242;20.940;2022-10-16T16:01:20;18.90;99.90
33594;DHT22;19920;52.242;20.940;2022-10-16T16:03:46;18.90;99.90
33594;DHT22;19920;52.242;20.940;2022-10-16T16:06:13;18.80;99.90
33594;DHT22;19920;52.242;20.940;2022-10-16T16:08:39;18.80;99.90
33594;DHT22;19920;52.242;20.940;2022-10-16T16:11:07;18.80;99.90
33594;DHT22;19920;52.242;20.940;2022-10-16T16:13:33;18.70;99.90
33594;DHT22;19920;52.242;20.940;2022-10-16T16:15:59;18.70;99.90
33594;DHT22;19920;52.242;20.940;2022-10-16T16:18:25;18.60;99.90
33594;DHT22;19920;52.242;20.940;2022-10-16T16:20:51;18.60;99.90
33594;DHT22;19920;52.242;20.940;2022-10-16T16:23:17;18.40;99.90
33594;DHT22;19920;52.242;20.940;2022-10-16T16:25:44;18.40;99.90
33594;DHT22;19920;52.242;20.940;2022-10-16T16:28:10;18.40;99.90
33594;DHT22;19920;52.242;20.940;2022-10-16T16:30:39;18.40;99.90
33594;DHT22;19920;52.242;20.940;2022-10-16T16:33:05;18.30;99.90
33594;DHT22;19920;52.242;20.940;2022-10-16T16:35:31;18.30;99.90
33594;DHT22;19920;52.242;20.940;2022-10-16T16:37:56;18.30;99.90
33594;DHT22;19920;52.242;20.940;2022-10-16T16:40:22;18.30;99.90
33594;DHT22;19920;52.242;20.940;2022-10-16T16:42:50;18.20;99.90
33594;DHT22;19920;52.242;20.940;2022-10-16T16:45:16;18.20;99.90
33594;DHT22;19920;52.242;20.940;2022-10-16T16:47:42;18.10;99.90
33594;DHT22;19920;52.242;20.940;2022-10-16T16:50:07;18.10;99.90
33594;DHT22;19920;52.242;20.940;2022-10-16T16:52:35;18.10;99.90
33594;DHT22;19920;52.242;20.940;2022-10-16T16:55:00;18.10;99.90
33594;DHT22;19920;52.242;20.940;2022-10-16T16:57:27;17.90;99.90
33594;DHT22;19920;52.242;20.940;2022-10-16T16:59:52;17.90;99.90
33594;DHT22;19920;52.242;20.940;2022-10-16T17:02:18;17.90;99.90
33594;DHT22;19920;52.242;20.940;2022-10-16T17:04:44;17.80;99.90
33594;DHT22;19920;52.242;20.940;2022-10-16T17:07:09;17.80;99.90
33594;DHT22;19920;52.242;20.940;2022-10-16T17:09:35;17.70;99.90
33594;DHT22;19920;52.242;20.940;2022-10-16T17:12:01;17.60;99.90
33594;DHT22;19920;52.242;20.940;2022-10-16T17:14:26;17.60;99.90
33594;DHT22;19920;52.242;20.940;2022-10-16T17:16:52;17.50;99.90
33594;DHT22;19920;52.242;20.940;2022-10-16T17:19:19;17.50;99.90
33594;DHT22;19920;52.242;20.940;2022-10-16T17:21:47;17.40;99.90
33594;DHT22;19920;52.242;20.940;2022-10-16T17:24:13;17.40;99.90
33594;DHT22;19920;52.242;20.940;2022-10-16T17:26:39;17.30;99.90
33594;DHT22;19920;52.242;20.940;2022-10-16T17:29:10;17.30;99.90